createdAt,value
2017-08-20T00:00:34.334Z,11.73
2017-08-20T00:03:03.002Z,8.90
2017-08-20T00:05:33.487Z,10.20
2017-08-20T00:08:01.963Z,12.30
2017-08-20T00:10:30.544Z,15.03
2017-08-20T00:12:59.124Z,11.93
2017-08-20T00:15:27.842Z,9.73
2017-08-20T00:17:56.504Z,10.27
2017-08-20T00:20:24.453Z,9.03
2017-08-20T00:22:52.854Z,9.70
2017-08-20T00:25:20.410Z,9.03
2017-08-20T00:27:48.193Z,10.50
2017-08-20T00:30:16.859Z,10.50
2017-08-20T00:32:44.653Z,8.93
2017-08-20T00:35:12.453Z,10.10
2017-08-20T00:37:42.424Z,12.97
2017-08-20T00:40:13.077Z,10.97
2017-08-20T00:42:43.193Z,12.43
2017-08-20T00:45:14.032Z,10.00
2017-08-20T00:47:42.751Z,8.80
2017-08-20T00:50:12.325Z,10.47
2017-08-20T00:52:41.523Z,10.30
2017-08-20T00:55:09.865Z,8.90
2017-08-20T00:57:37.655Z,18.37
2017-08-20T01:00:05.927Z,12.37
2017-08-20T01:02:34.272Z,11.57
2017-08-20T01:05:02.264Z,10.37
2017-08-20T01:07:30.060Z,12.57
2017-08-20T01:09:59.239Z,11.13
2017-08-20T01:12:27.665Z,11.27
2017-08-20T01:14:55.579Z,9.10
2017-08-20T01:17:23.434Z,8.43
2017-08-20T01:19:51.259Z,9.80
2017-08-20T01:22:19.909Z,8.33
2017-08-20T01:24:48.461Z,10.47
2017-08-20T01:27:16.200Z,10.60
2017-08-20T01:29:44.950Z,9.93
2017-08-20T01:32:12.573Z,13.37
2017-08-20T01:34:40.127Z,9.70
2017-08-20T01:37:07.752Z,15.73
2017-08-20T01:39:36.833Z,10.73
2017-08-20T01:42:05.279Z,8.33
2017-08-20T01:44:33.564Z,17.63
2017-08-20T01:47:01.837Z,14.73
2017-08-20T01:49:29.429Z,15.33
2017-08-20T01:51:58.559Z,8.90
2017-08-20T01:54:28.310Z,10.37
2017-08-20T01:56:56.234Z,9.63
2017-08-20T01:59:23.924Z,13.57
2017-08-20T02:01:52.430Z,10.07
2017-08-20T02:04:20.436Z,16.80
2017-08-20T02:06:48.266Z,12.07
2017-08-20T02:09:15.934Z,12.10
2017-08-20T02:11:44.299Z,10.07
2017-08-20T02:14:11.889Z,10.47
2017-08-20T02:16:39.504Z,10.30
2017-08-20T02:19:07.116Z,16.70
2017-08-20T02:21:34.682Z,10.83
2017-08-20T02:24:02.395Z,14.50
2017-08-20T02:26:30.039Z,11.10
2017-08-20T02:28:57.609Z,11.73
2017-08-20T02:31:25.241Z,13.37
2017-08-20T02:33:52.846Z,13.73
2017-08-20T02:36:20.433Z,11.60
2017-08-20T02:38:48.138Z,15.40
2017-08-20T02:41:15.760Z,16.90
2017-08-20T02:43:43.429Z,11.73
2017-08-20T02:46:11.001Z,12.67
2017-08-20T02:48:38.573Z,11.80
2017-08-20T02:51:06.679Z,12.10
2017-08-20T02:53:34.341Z,12.47
2017-08-20T02:56:01.942Z,12.93
2017-08-20T02:58:29.546Z,13.73
2017-08-20T03:00:57.146Z,14.23
2017-08-20T03:03:25.665Z,16.83
2017-08-20T03:05:53.702Z,16.03
2017-08-20T03:08:23.061Z,14.70
2017-08-20T03:10:51.603Z,13.33
2017-08-20T03:13:19.364Z,17.30
2017-08-20T03:15:48.311Z,12.40
2017-08-20T03:18:16.134Z,12.60
2017-08-20T03:20:45.573Z,16.47
2017-08-20T03:23:14.009Z,13.20
2017-08-20T03:25:42.396Z,17.03
2017-08-20T03:28:10.871Z,17.87
2017-08-20T03:30:38.492Z,16.30
2017-08-20T03:33:07.089Z,12.57
2017-08-20T03:35:34.742Z,15.10
2017-08-20T03:38:02.377Z,12.77
2017-08-20T03:40:30.204Z,13.73
2017-08-20T03:42:57.977Z,17.23
2017-08-20T03:45:27.992Z,13.67
2017-08-20T03:47:56.664Z,12.73
2017-08-20T03:50:24.511Z,15.20
2017-08-20T03:52:52.501Z,13.00
2017-08-20T03:55:20.130Z,15.90
2017-08-20T03:57:48.091Z,17.30
2017-08-20T04:00:16.441Z,14.50
2017-08-20T04:02:44.209Z,21.17
2017-08-20T04:05:13.398Z,17.47
2017-08-20T04:07:41.041Z,21.40
2017-08-20T04:10:08.586Z,14.87
2017-08-20T04:12:37.725Z,16.20
2017-08-20T04:15:05.459Z,15.87
2017-08-20T04:17:33.958Z,13.67
2017-08-20T04:20:03.286Z,13.37
2017-08-20T04:22:30.961Z,16.33
2017-08-20T04:24:58.910Z,14.67
2017-08-20T04:27:26.691Z,16.90
2017-08-20T04:29:54.316Z,14.53
2017-08-20T04:32:22.367Z,18.13
2017-08-20T04:34:50.949Z,15.53
2017-08-20T04:37:20.135Z,15.07
2017-08-20T04:39:49.116Z,14.50
2017-08-20T04:42:18.636Z,13.33
2017-08-20T04:44:47.345Z,16.10
2017-08-20T04:47:16.747Z,14.27
2017-08-20T04:49:44.362Z,12.50
2017-08-20T04:52:12.231Z,17.13
2017-08-20T04:54:40.282Z,12.40
2017-08-20T04:57:08.792Z,12.90
2017-08-20T04:59:36.490Z,13.17
2017-08-20T05:02:05.045Z,16.77
2017-08-20T05:04:32.945Z,12.57
2017-08-20T05:07:01.119Z,16.77
2017-08-20T05:09:29.832Z,17.13
2017-08-20T05:11:57.384Z,17.20
2017-08-20T05:14:26.437Z,17.47
2017-08-20T05:16:55.046Z,13.50
2017-08-20T05:19:22.906Z,15.17
2017-08-20T05:21:50.666Z,16.03
2017-08-20T05:24:18.623Z,19.63
2017-08-20T05:26:46.239Z,14.07
2017-08-20T05:29:14.181Z,27.37
2017-08-20T05:31:41.814Z,12.70
2017-08-20T05:34:09.470Z,16.07
2017-08-20T05:36:37.066Z,16.57
2017-08-20T05:39:04.726Z,14.17
2017-08-20T05:41:32.350Z,11.47
2017-08-20T05:43:59.963Z,14.30
2017-08-20T05:46:27.605Z,16.20
2017-08-20T05:48:55.974Z,14.00
2017-08-20T05:51:23.605Z,14.70
2017-08-20T05:53:51.284Z,20.20
2017-08-20T05:56:19.056Z,15.40
2017-08-20T05:58:48.659Z,19.33
2017-08-20T06:01:17.144Z,14.40
2017-08-20T06:03:50.130Z,19.37
2017-08-20T06:06:21.092Z,13.43
2017-08-20T06:08:49.726Z,16.13
2017-08-20T06:11:22.352Z,14.60
2017-08-20T06:13:50.606Z,15.23
2017-08-20T06:16:20.501Z,16.23
2017-08-20T06:18:54.033Z,20.63
2017-08-20T06:21:22.115Z,22.27
2017-08-20T06:23:53.671Z,20.83
2017-08-20T06:26:23.539Z,12.50
2017-08-20T06:28:54.233Z,15.20
2017-08-20T06:31:24.418Z,13.13
2017-08-20T06:33:56.231Z,13.97
2017-08-20T06:36:24.908Z,12.20
2017-08-20T06:38:56.006Z,13.63
2017-08-20T06:41:25.776Z,14.17
2017-08-20T06:43:54.919Z,11.40
2017-08-20T06:46:23.598Z,7.60
2017-08-20T06:48:52.270Z,10.13
2017-08-20T06:51:27.381Z,9.53
2017-08-20T06:53:57.088Z,8.93
2017-08-20T06:56:25.618Z,11.03
2017-08-20T06:58:55.521Z,9.20
2017-08-20T07:01:23.504Z,10.43
2017-08-20T07:03:51.829Z,12.70
2017-08-20T07:06:19.700Z,12.60
2017-08-20T07:08:48.213Z,7.57
2017-08-20T07:11:17.667Z,12.33
2017-08-20T07:13:45.520Z,14.10
2017-08-20T07:16:13.278Z,13.37
2017-08-20T07:18:40.799Z,7.97
2017-08-20T07:21:08.573Z,9.90
2017-08-20T07:23:36.651Z,14.43
2017-08-20T07:26:05.513Z,11.60
2017-08-20T07:28:33.206Z,11.87
2017-08-20T07:31:01.791Z,9.93
2017-08-20T07:33:30.050Z,8.53
2017-08-20T07:35:57.689Z,9.77
2017-08-20T07:38:25.674Z,11.10
2017-08-20T07:40:53.433Z,9.67
2017-08-20T07:43:22.665Z,11.80
2017-08-20T07:45:50.291Z,10.77
2017-08-20T07:48:18.049Z,14.53
2017-08-20T07:50:45.975Z,17.53
2017-08-20T07:53:13.572Z,14.23
2017-08-20T07:55:41.203Z,8.53
2017-08-20T07:58:09.340Z,8.50
2017-08-20T08:00:36.985Z,8.80
2017-08-20T08:03:04.744Z,8.90
2017-08-20T08:05:32.418Z,11.23
2017-08-20T08:08:01.150Z,8.50
2017-08-20T08:10:28.907Z,9.20
2017-08-20T08:12:56.789Z,7.63
2017-08-20T08:15:24.924Z,13.97
2017-08-20T08:17:52.600Z,13.40
2017-08-20T08:20:20.368Z,10.10
2017-08-20T08:22:47.996Z,9.37
2017-08-20T08:25:15.611Z,11.47
2017-08-20T08:27:43.450Z,6.53
2017-08-20T08:30:11.154Z,12.43
2017-08-20T08:32:38.792Z,13.80
2017-08-20T08:35:06.362Z,9.17
2017-08-20T08:37:35.014Z,10.27
2017-08-20T08:40:04.627Z,12.83
2017-08-20T08:42:32.360Z,9.90
2017-08-20T08:44:59.959Z,8.80
2017-08-20T08:47:27.638Z,15.97
2017-08-20T08:49:55.757Z,11.00
2017-08-20T08:52:23.363Z,7.80
2017-08-20T08:54:51.236Z,12.73
2017-08-20T08:57:19.572Z,8.63
2017-08-20T08:59:47.753Z,12.60
2017-08-20T09:02:16.086Z,11.27
2017-08-20T09:04:44.283Z,7.67
2017-08-20T09:07:11.829Z,8.73
2017-08-20T09:09:39.424Z,16.23
2017-08-20T09:12:07.200Z,16.60
2017-08-20T09:14:35.430Z,7.00
2017-08-20T09:17:03.037Z,13.93
2017-08-20T09:19:30.729Z,14.53
2017-08-20T09:21:59.495Z,14.30
2017-08-20T09:24:37.990Z,10.40
2017-08-20T09:27:22.255Z,14.93
2017-08-20T09:29:49.918Z,7.03
2017-08-20T09:32:17.781Z,15.53
2017-08-20T09:34:46.023Z,11.23
2017-08-20T09:37:13.788Z,12.17
2017-08-20T09:39:42.227Z,10.40
2017-08-20T09:42:09.992Z,9.87
2017-08-20T09:44:37.806Z,9.83
2017-08-20T09:47:05.485Z,7.37
2017-08-20T09:49:33.280Z,6.33
2017-08-20T09:52:00.850Z,11.60
2017-08-20T09:54:30.046Z,10.53
2017-08-20T09:56:57.649Z,11.90
2017-08-20T09:59:25.824Z,10.33
2017-08-20T10:01:54.483Z,8.70
2017-08-20T10:04:22.171Z,9.33
2017-08-20T10:06:49.818Z,8.37
2017-08-20T10:09:17.586Z,6.53
2017-08-20T10:11:46.606Z,9.10
2017-08-20T10:14:30.485Z,7.37
2017-08-20T10:19:52.560Z,14.70
2017-08-20T10:29:15.067Z,8.33
2017-08-20T10:31:44.715Z,17.50
2017-08-20T10:34:14.558Z,11.83
2017-08-20T10:36:43.532Z,15.43
2017-08-20T10:39:13.319Z,8.53
2017-08-20T10:41:40.999Z,9.10
2017-08-20T10:44:09.189Z,7.27
2017-08-20T10:49:13.066Z,13.30
2017-08-20T10:51:40.748Z,8.07
2017-08-20T10:54:10.373Z,7.03
2017-08-20T10:56:42.936Z,10.40
2017-08-20T11:01:45.684Z,8.63
2017-08-20T11:04:13.430Z,9.20
2017-08-20T11:06:41.507Z,8.30
2017-08-20T11:09:09.607Z,11.00
2017-08-20T11:11:40.778Z,8.63
2017-08-20T11:14:10.112Z,11.00
2017-08-20T11:16:40.784Z,9.33
2017-08-20T11:19:08.540Z,7.60
2017-08-20T11:21:36.214Z,9.57
2017-08-20T11:24:06.656Z,7.60
2017-08-20T11:26:36.130Z,7.90
2017-08-20T11:29:04.942Z,10.40
2017-08-20T11:31:37.033Z,13.47
2017-08-20T11:34:04.639Z,9.30
2017-08-20T11:36:32.243Z,9.23
2017-08-20T11:39:00.577Z,7.50
2017-08-20T11:41:33.284Z,14.53
2017-08-20T11:44:01.619Z,11.03
2017-08-20T11:46:30.324Z,18.93
2017-08-20T11:48:58.012Z,10.63
2017-08-20T11:51:25.656Z,9.30
2017-08-20T11:53:54.516Z,12.10
2017-08-20T11:56:23.247Z,8.00
2017-08-20T11:58:51.099Z,15.00
2017-08-20T12:01:18.796Z,9.17
2017-08-20T12:03:46.432Z,8.43
2017-08-20T12:06:14.094Z,7.30
2017-08-20T12:08:44.602Z,10.13
2017-08-20T12:11:13.510Z,7.30
2017-08-20T12:13:41.242Z,7.53
2017-08-20T12:16:11.195Z,11.20
2017-08-20T12:18:39.331Z,10.13
2017-08-20T12:21:09.408Z,12.00
2017-08-20T12:23:37.309Z,12.23
2017-08-20T12:26:07.777Z,9.03
2017-08-20T12:28:47.670Z,9.07
2017-08-20T12:31:20.628Z,12.73
2017-08-20T12:33:50.223Z,10.23
2017-08-20T12:36:17.882Z,7.03
2017-08-20T12:38:48.789Z,11.77
2017-08-20T12:41:16.549Z,15.90
2017-08-20T12:43:44.342Z,9.50
2017-08-20T12:48:49.443Z,31.67
2017-08-20T12:51:23.093Z,7.50
2017-08-20T12:53:50.938Z,9.80
2017-08-20T12:56:18.705Z,10.03
2017-08-20T12:58:47.459Z,12.20
2017-08-20T13:01:15.272Z,8.37
2017-08-20T13:03:42.888Z,10.80
2017-08-20T13:06:10.472Z,6.57
2017-08-20T13:08:38.076Z,9.87
2017-08-20T13:11:05.704Z,15.53
2017-08-20T13:13:33.442Z,8.40
2017-08-20T13:16:01.057Z,14.07
2017-08-20T13:18:28.692Z,29.60
2017-08-20T13:20:57.837Z,11.80
2017-08-20T13:23:27.270Z,14.00
2017-08-20T13:25:55.032Z,10.97
2017-08-20T13:28:22.761Z,7.83
2017-08-20T13:30:50.375Z,7.20
2017-08-20T13:33:19.531Z,7.53
2017-08-20T13:35:48.692Z,14.00
2017-08-20T13:38:16.654Z,8.40
2017-08-20T13:40:44.644Z,8.47
2017-08-20T13:43:13.683Z,7.00
2017-08-20T13:45:41.952Z,9.60
2017-08-20T13:48:09.698Z,7.50
2017-08-20T13:50:37.983Z,7.90
2017-08-20T13:53:05.791Z,12.23
2017-08-20T13:55:33.481Z,9.50
2017-08-20T13:58:02.716Z,10.87
2017-08-20T14:00:30.837Z,7.87
2017-08-20T14:02:58.437Z,9.50
2017-08-20T14:05:26.951Z,9.90
2017-08-20T14:07:55.716Z,9.50
2017-08-20T14:10:24.222Z,8.10
2017-08-20T14:12:53.145Z,12.30
2017-08-20T14:15:22.803Z,12.20
2017-08-20T14:17:50.460Z,10.67
2017-08-20T14:20:19.188Z,9.90
2017-08-20T14:22:48.349Z,10.93
2017-08-20T14:25:16.951Z,7.07
2017-08-20T14:27:44.900Z,8.13
2017-08-20T14:30:12.679Z,9.07
2017-08-20T14:32:40.223Z,12.90
2017-08-20T14:35:07.965Z,7.23
2017-08-20T14:37:35.712Z,8.07
2017-08-20T14:40:03.459Z,6.83
2017-08-20T14:42:32.039Z,6.23
2017-08-20T14:44:59.989Z,10.50
2017-08-20T14:47:28.111Z,12.90
2017-08-20T14:49:57.261Z,8.47
2017-08-20T14:52:25.150Z,11.03
2017-08-20T14:54:52.957Z,14.60
2017-08-20T14:57:21.145Z,9.87
2017-08-20T14:59:48.963Z,9.40
2017-08-20T15:02:18.341Z,10.33
2017-08-20T15:04:46.869Z,9.73
2017-08-20T15:07:15.273Z,10.47
2017-08-20T15:09:42.929Z,7.00
2017-08-20T15:12:10.572Z,13.23
2017-08-20T15:14:38.185Z,6.57
2017-08-20T15:17:05.801Z,10.63
2017-08-20T15:19:33.726Z,15.30
2017-08-20T15:22:01.847Z,7.70
2017-08-20T15:24:30.182Z,7.87
2017-08-20T15:26:58.577Z,6.60
2017-08-20T15:29:27.653Z,10.17
2017-08-20T15:31:55.308Z,6.13
2017-08-20T15:34:23.049Z,17.70
2017-08-20T15:36:50.727Z,10.77
2017-08-20T15:39:18.536Z,7.57
2017-08-20T15:41:46.345Z,14.60
2017-08-20T15:44:14.267Z,8.27
2017-08-20T15:46:41.884Z,9.97
2017-08-20T15:49:09.491Z,7.00
2017-08-20T15:51:37.257Z,9.80
2017-08-20T15:54:05.028Z,6.93
2017-08-20T15:56:32.553Z,6.37
2017-08-20T15:59:01.129Z,5.53
2017-08-20T16:01:29.136Z,10.17
2017-08-20T16:03:57.145Z,9.60
2017-08-20T16:06:27.089Z,12.97
2017-08-20T16:08:54.982Z,6.00
2017-08-20T16:11:22.773Z,12.80
2017-08-20T16:13:50.346Z,5.37
2017-08-20T16:16:27.240Z,6.83
2017-08-20T16:18:56.154Z,7.60
2017-08-20T16:21:24.755Z,6.77
2017-08-20T16:23:54.516Z,6.53
2017-08-20T16:26:24.572Z,5.87
2017-08-20T16:28:54.856Z,7.90
2017-08-20T16:34:54.507Z,4.70
2017-08-20T16:37:32.849Z,8.47
2017-08-20T16:40:14.007Z,9.00
2017-08-20T16:42:43.412Z,10.63
2017-08-20T16:45:12.544Z,7.30
2017-08-20T16:47:40.288Z,8.50
2017-08-20T16:50:15.117Z,5.40
2017-08-20T16:53:06.582Z,7.10
2017-08-20T16:55:43.950Z,7.30
2017-08-20T16:58:13.463Z,7.20
2017-08-20T17:00:41.158Z,7.93
2017-08-20T17:03:08.796Z,8.77
2017-08-20T17:05:36.509Z,7.80
2017-08-20T17:08:04.135Z,6.60
2017-08-20T17:10:32.131Z,12.07
2017-08-20T17:12:59.811Z,6.80
2017-08-20T17:18:54.057Z,8.63
2017-08-20T17:21:23.051Z,7.43
2017-08-20T17:23:52.199Z,10.90
2017-08-20T17:26:20.188Z,5.93
2017-08-20T17:28:48.723Z,7.57
2017-08-20T17:31:16.741Z,9.13
2017-08-20T17:33:45.749Z,9.67
2017-08-20T17:36:13.372Z,11.00
2017-08-20T17:38:42.708Z,13.73
2017-08-20T17:41:10.940Z,11.03
2017-08-20T17:43:41.373Z,6.40
2017-08-20T17:46:08.930Z,8.50
2017-08-20T17:48:37.594Z,9.30
2017-08-20T17:51:06.753Z,12.00
2017-08-20T17:53:35.272Z,8.17
2017-08-20T17:56:04.059Z,9.40
2017-08-20T17:58:31.632Z,9.37
2017-08-20T18:00:59.775Z,13.20
2017-08-20T18:03:28.349Z,8.10
2017-08-20T18:05:57.076Z,6.60
2017-08-20T18:08:24.673Z,11.10
2017-08-20T18:10:53.097Z,6.50
2017-08-20T18:13:22.061Z,10.00
2017-08-20T18:15:50.699Z,9.43
2017-08-20T18:18:18.699Z,7.23
2017-08-20T18:20:46.345Z,10.13
2017-08-20T18:23:13.990Z,15.80
2017-08-20T18:25:41.631Z,10.60
2017-08-20T18:28:09.384Z,16.57
2017-08-20T18:30:38.039Z,11.37
2017-08-20T18:33:06.272Z,16.60
2017-08-20T18:35:33.904Z,16.13
2017-08-20T18:38:01.557Z,12.20
2017-08-20T18:40:30.869Z,14.30
2017-08-20T18:43:00.781Z,17.70
2017-08-20T18:45:29.344Z,11.60
2017-08-20T18:47:57.889Z,7.87
2017-08-20T18:50:27.694Z,14.43
2017-08-20T18:52:57.292Z,14.03
2017-08-20T18:55:25.196Z,21.03
2017-08-20T18:57:54.147Z,12.20
2017-08-20T19:00:22.072Z,14.23
2017-08-20T19:02:51.060Z,14.17
2017-08-20T19:05:19.681Z,12.90
2017-08-20T19:07:48.290Z,13.33
2017-08-20T19:10:17.898Z,16.70
2017-08-20T19:12:46.108Z,12.43
2017-08-20T19:15:13.912Z,13.97
2017-08-20T19:17:43.726Z,11.03
2017-08-20T19:20:13.644Z,11.00
2017-08-20T19:22:42.798Z,16.77
2017-08-20T19:25:11.287Z,16.57
2017-08-20T19:27:41.376Z,16.40
2017-08-20T19:30:13.334Z,23.50
2017-08-20T19:32:45.506Z,21.60
2017-08-20T19:35:13.612Z,21.50
2017-08-20T19:37:42.406Z,25.80
2017-08-20T19:40:10.130Z,23.07
2017-08-20T19:42:37.774Z,21.87
2017-08-20T19:45:06.269Z,20.73
2017-08-20T19:47:33.952Z,25.17
2017-08-20T19:50:01.667Z,14.70
2017-08-20T19:52:29.390Z,15.50
2017-08-20T19:54:56.976Z,19.83
2017-08-20T19:57:24.618Z,15.30
2017-08-20T19:59:52.171Z,19.83
2017-08-20T20:02:19.840Z,21.80
2017-08-20T20:04:47.409Z,18.67
2017-08-20T20:07:16.005Z,21.37
2017-08-20T20:09:43.593Z,15.00
2017-08-20T20:12:11.271Z,16.80
2017-08-20T20:14:38.988Z,13.47
2017-08-20T20:17:06.591Z,13.13
2017-08-20T20:19:35.310Z,22.83
2017-08-20T20:22:03.568Z,18.57
2017-08-20T20:24:37.209Z,20.87
2017-08-20T20:27:06.064Z,28.07
2017-08-20T20:29:43.417Z,26.97
2017-08-20T20:32:20.018Z,13.70
2017-08-20T20:37:30.362Z,13.97
2017-08-20T20:40:00.289Z,21.40
2017-08-20T20:42:27.970Z,20.60
2017-08-20T20:44:56.240Z,19.07
2017-08-20T20:47:25.180Z,19.63
2017-08-20T20:49:53.543Z,11.77
2017-08-20T20:55:52.368Z,11.43
2017-08-20T20:58:19.995Z,12.00
2017-08-20T21:01:28.340Z,10.97
2017-08-20T21:03:59.123Z,12.00
2017-08-20T21:06:27.370Z,14.87
2017-08-20T21:08:56.590Z,9.27
2017-08-20T21:11:26.480Z,11.50
2017-08-20T21:13:58.575Z,14.90
2017-08-20T21:16:26.871Z,14.30
2017-08-20T21:18:56.975Z,8.23
2017-08-20T21:21:27.823Z,11.67
2017-08-20T21:23:58.043Z,18.73
2017-08-20T21:26:31.420Z,9.17
2017-08-20T21:29:01.185Z,12.07
2017-08-20T21:31:36.394Z,10.20
2017-08-20T21:34:07.862Z,15.30
2017-08-20T21:36:37.653Z,13.00
2017-08-20T21:39:08.110Z,11.40
2017-08-20T21:41:38.060Z,10.77
2017-08-20T21:44:11.223Z,10.27
2017-08-20T21:46:43.517Z,18.27
2017-08-20T21:49:13.823Z,11.10
2017-08-20T21:51:42.914Z,11.87
2017-08-20T21:54:14.209Z,12.23
2017-08-20T21:56:43.919Z,11.17
2017-08-20T21:59:12.581Z,11.53
2017-08-20T22:01:40.225Z,14.40
2017-08-20T22:04:09.000Z,11.43
2017-08-20T22:06:37.394Z,11.97
2017-08-20T22:09:05.887Z,12.33
2017-08-20T22:11:36.050Z,12.87
2017-08-20T22:14:06.053Z,13.10
2017-08-20T22:16:37.186Z,14.77
2017-08-20T22:19:07.620Z,12.17
2017-08-20T22:21:37.170Z,13.40
2017-08-20T22:24:10.090Z,13.93
2017-08-20T22:27:25.159Z,13.23
2017-08-20T22:29:55.614Z,12.97
2017-08-20T22:32:25.326Z,15.43
2017-08-20T22:34:53.194Z,14.10
2017-08-20T22:37:20.747Z,13.47
2017-08-20T22:39:52.932Z,21.20
2017-08-20T22:42:20.496Z,14.87
2017-08-20T22:44:48.090Z,13.73
2017-08-20T22:47:15.820Z,15.30
2017-08-20T22:49:43.440Z,16.00
2017-08-20T22:52:10.986Z,14.60
2017-08-20T22:54:39.219Z,15.20
2017-08-20T22:57:06.885Z,15.57
2017-08-20T22:59:34.482Z,15.77
2017-08-20T23:02:02.991Z,16.10
2017-08-20T23:04:30.651Z,15.40
2017-08-20T23:06:58.337Z,17.03
2017-08-20T23:09:25.942Z,16.20
2017-08-20T23:11:53.541Z,16.90
2017-08-20T23:14:21.715Z,19.43
2017-08-20T23:16:49.800Z,17.80
2017-08-20T23:19:17.560Z,19.20
2017-08-20T23:21:45.116Z,20.60
2017-08-20T23:24:12.685Z,21.50
2017-08-20T23:26:40.690Z,21.70
2017-08-20T23:29:08.304Z,27.07
2017-08-20T23:31:37.012Z,22.57
2017-08-20T23:34:04.969Z,22.97
2017-08-20T23:36:33.196Z,23.20
2017-08-20T23:39:01.308Z,23.60
2017-08-20T23:41:29.181Z,25.10
2017-08-20T23:43:57.597Z,24.47
2017-08-20T23:46:25.948Z,26.80
2017-08-20T23:48:53.489Z,23.60
2017-08-20T23:51:21.103Z,26.60
2017-08-20T23:53:49.392Z,28.87
2017-08-20T23:56:16.918Z,23.90
2017-08-20T23:58:44.475Z,24.33
